createdAt,value
2019-02-22T00:01:10.964Z,100175.82
2019-02-22T00:03:39.803Z,100178.64
2019-02-22T00:06:08.583Z,100180.43
2019-02-22T00:08:37.378Z,100184.94
2019-02-22T00:11:06.257Z,100185.83
2019-02-22T00:13:35.136Z,100185.81
2019-02-22T00:16:03.901Z,100182.71
2019-02-22T00:18:32.697Z,100177.52
2019-02-22T00:21:01.450Z,100176.55
2019-02-22T00:23:30.216Z,100171.23
2019-02-22T00:25:59.069Z,100168.50
2019-02-22T00:28:28.009Z,100163.09
2019-02-22T00:30:56.801Z,100160.34
2019-02-22T00:33:25.668Z,100155.45
2019-02-22T00:35:54.457Z,100156.22
2019-02-22T00:38:23.276Z,100153.95
2019-02-22T00:40:52.048Z,100150.81
2019-02-22T00:43:20.820Z,100140.79
2019-02-22T00:45:49.664Z,100142.47
2019-02-22T00:48:18.513Z,100138.95
2019-02-22T00:50:47.421Z,100138.87
2019-02-22T00:53:16.223Z,100140.10
2019-02-22T00:55:45.066Z,100123.23
2019-02-22T00:58:13.836Z,100129.31
2019-02-22T01:00:42.692Z,100126.02
2019-02-22T01:03:11.531Z,100123.53
2019-02-22T01:05:40.374Z,100122.37
2019-02-22T01:08:09.142Z,100115.81
2019-02-22T01:10:38.062Z,100109.10
2019-02-22T01:13:06.848Z,100110.02
2019-02-22T01:15:35.626Z,100109.41
2019-02-22T01:18:04.465Z,100102.92
2019-02-22T01:20:33.256Z,100098.16
2019-02-22T01:23:02.025Z,100092.44
2019-02-22T01:25:30.809Z,100089.77
2019-02-22T01:27:59.580Z,100083.16
2019-02-22T01:30:28.355Z,100076.14
2019-02-22T01:32:57.113Z,100071.94
2019-02-22T01:35:26.000Z,100062.30
2019-02-22T01:37:54.761Z,100064.34
2019-02-22T01:40:23.607Z,100061.69
2019-02-22T01:42:52.392Z,100059.24
2019-02-22T01:45:21.163Z,100054.06
2019-02-22T01:47:50.008Z,100055.38
2019-02-22T01:50:22.881Z,100049.40
2019-02-22T01:52:51.639Z,100048.95
2019-02-22T01:55:20.401Z,100044.66
2019-02-22T01:57:49.187Z,100041.58
2019-02-22T02:00:18.034Z,100035.56
2019-02-22T02:02:46.887Z,100033.81
2019-02-22T02:05:15.729Z,100025.72
2019-02-22T02:07:44.590Z,100022.30
2019-02-22T02:10:13.355Z,100022.30
2019-02-22T02:12:42.132Z,100018.86
2019-02-22T02:15:10.907Z,100012.92
2019-02-22T02:17:39.689Z,100015.95
2019-02-22T02:20:08.830Z,100009.02
2019-02-22T02:22:37.594Z,100014.72
2019-02-22T02:25:08.558Z,100015.59
2019-02-22T02:27:37.332Z,100012.24
2019-02-22T02:30:08.498Z,100013.61
2019-02-22T02:32:37.311Z,100013.66
2019-02-22T02:35:06.596Z,100004.13
2019-02-22T02:37:35.449Z,100002.28
2019-02-22T02:40:05.299Z,100001.73
2019-02-22T02:42:34.126Z,99992.87
2019-02-22T02:45:02.993Z,99999.28
2019-02-22T02:47:31.757Z,100000.95
2019-02-22T02:50:00.519Z,99998.71
2019-02-22T02:52:29.286Z,99998.66
2019-02-22T02:54:58.067Z,100000.88
2019-02-22T02:57:26.845Z,99998.75
2019-02-22T02:59:55.610Z,100002.18
2019-02-22T03:02:25.253Z,100000.05
2019-02-22T03:04:54.187Z,100001.48
2019-02-22T03:07:42.217Z,99999.89
2019-02-22T03:10:10.980Z,100001.56
2019-02-22T03:12:39.753Z,100007.88
2019-02-22T03:15:11.023Z,100000.44
2019-02-22T03:17:39.859Z,99999.53
2019-02-22T03:20:09.395Z,99990.91
2019-02-22T03:22:38.237Z,99990.44
2019-02-22T03:25:08.852Z,99997.33
2019-02-22T03:27:37.616Z,99988.00
2019-02-22T03:30:09.174Z,99981.58
2019-02-22T03:32:37.959Z,99980.23
2019-02-22T03:35:07.408Z,99976.63
2019-02-22T03:37:36.185Z,99964.82
2019-02-22T03:40:07.188Z,99969.86
2019-02-22T03:42:36.017Z,99975.43
2019-02-22T03:45:08.452Z,99967.18
2019-02-22T03:47:37.227Z,99964.66
2019-02-22T03:50:06.979Z,99960.00
2019-02-22T03:52:37.392Z,99954.83
2019-02-22T03:55:07.937Z,99957.07
2019-02-22T03:57:36.705Z,99953.05
2019-02-22T04:00:10.611Z,99953.38
2019-02-22T04:02:39.383Z,99941.20
2019-02-22T04:05:08.620Z,99941.02
2019-02-22T04:07:37.389Z,99928.05
2019-02-22T04:10:07.542Z,99923.73
2019-02-22T04:12:36.354Z,99918.17
2019-02-22T04:15:07.791Z,99919.57
2019-02-22T04:17:36.615Z,99915.70
2019-02-22T04:20:07.298Z,99916.77
2019-02-22T04:22:36.127Z,99912.15
2019-02-22T04:25:05.600Z,99906.27
2019-02-22T04:27:34.537Z,99900.80
2019-02-22T04:30:03.368Z,99896.48
2019-02-22T04:32:32.126Z,99896.63
2019-02-22T04:35:00.960Z,99895.48
2019-02-22T04:37:29.781Z,99893.77
2019-02-22T04:39:58.611Z,99890.45
2019-02-22T04:42:27.420Z,99891.04
2019-02-22T04:44:56.256Z,99893.69
2019-02-22T04:47:25.027Z,99890.80
2019-02-22T04:49:53.846Z,99887.37
2019-02-22T04:52:22.707Z,99882.66
2019-02-22T04:54:51.468Z,99876.05
2019-02-22T04:57:20.304Z,99873.83
2019-02-22T04:59:49.190Z,99871.58
2019-02-22T05:02:17.962Z,99865.44
2019-02-22T05:04:46.745Z,99864.06
2019-02-22T05:07:15.527Z,99864.34
2019-02-22T05:09:44.375Z,99859.67
2019-02-22T05:12:13.134Z,99863.91
2019-02-22T05:14:42.017Z,99857.47
2019-02-22T05:17:10.955Z,99857.42
2019-02-22T05:19:39.793Z,99854.90
2019-02-22T05:22:08.674Z,99864.52
2019-02-22T05:24:37.530Z,99865.53
2019-02-22T05:27:06.385Z,99863.47
2019-02-22T05:29:35.266Z,99864.23
2019-02-22T05:32:04.374Z,99864.30
2019-02-22T05:34:33.197Z,99859.50
2019-02-22T05:37:02.152Z,99861.72
2019-02-22T05:39:30.920Z,99854.58
2019-02-22T05:41:59.700Z,99848.58
2019-02-22T05:44:28.573Z,99845.55
2019-02-22T05:47:00.430Z,99843.38
2019-02-22T05:49:27.962Z,99843.21
2019-02-22T05:51:56.889Z,99846.34
2019-02-22T05:54:25.691Z,99844.19
2019-02-22T05:56:55.295Z,99843.47
2019-02-22T05:59:24.237Z,99847.00
2019-02-22T06:01:53.104Z,99844.16
2019-02-22T06:04:21.925Z,99839.30
2019-02-22T06:06:50.679Z,99841.42
2019-02-22T06:09:19.527Z,99842.88
2019-02-22T06:11:48.438Z,99832.94
2019-02-22T06:14:17.275Z,99833.44
2019-02-22T06:16:46.058Z,99835.02
2019-02-22T06:19:14.808Z,99832.02
2019-02-22T06:21:43.642Z,99830.81
2019-02-22T06:24:18.159Z,99830.58
2019-02-22T06:26:46.930Z,99826.75
2019-02-22T06:29:15.773Z,99831.70
2019-02-22T06:31:44.528Z,99829.45
2019-02-22T06:34:13.363Z,99818.75
2019-02-22T06:36:42.125Z,99822.41
2019-02-22T06:39:10.889Z,99816.64
2019-02-22T06:41:40.235Z,99816.83
2019-02-22T06:44:11.907Z,99810.05
2019-02-22T06:46:40.652Z,99811.09
2019-02-22T06:49:10.061Z,99809.44
2019-02-22T06:51:39.419Z,99799.02
2019-02-22T06:54:08.789Z,99792.50
2019-02-22T06:56:38.199Z,99784.02
2019-02-22T06:59:07.529Z,99786.40
2019-02-22T07:01:36.879Z,99784.34
2019-02-22T07:04:06.281Z,99783.50
2019-02-22T07:06:35.615Z,99780.06
2019-02-22T07:09:06.163Z,99786.30
2019-02-22T07:11:37.964Z,99773.27
2019-02-22T07:14:07.398Z,99770.68
2019-02-22T07:16:36.764Z,99763.20
2019-02-22T07:19:06.116Z,99763.69
2019-02-22T07:21:44.024Z,99752.73
2019-02-22T07:24:06.568Z,99755.88
2019-02-22T07:26:35.914Z,99752.28
2019-02-22T07:29:05.267Z,99755.36
2019-02-22T07:31:34.702Z,99747.45
2019-02-22T07:34:04.120Z,99752.56
2019-02-22T07:36:33.466Z,99743.95
2019-02-22T07:39:04.702Z,99736.00
2019-02-22T07:41:34.040Z,99737.23
2019-02-22T07:44:03.395Z,99733.84
2019-02-22T07:46:32.752Z,99734.05
2019-02-22T07:49:02.101Z,99728.52
2019-02-22T07:51:31.474Z,99725.88
2019-02-22T07:54:00.906Z,99725.67
2019-02-22T07:56:30.347Z,99723.88
2019-02-22T07:58:59.784Z,99716.38
2019-02-22T08:01:29.147Z,99714.99
2019-02-22T08:03:58.514Z,99710.60
2019-02-22T08:06:27.877Z,99704.09
2019-02-22T08:08:57.251Z,99706.90
2019-02-22T08:11:26.623Z,99701.80
2019-02-22T08:13:55.956Z,99701.78
2019-02-22T08:16:25.375Z,99695.66
2019-02-22T08:19:01.679Z,99692.81
2019-02-22T08:21:25.887Z,99687.42
2019-02-22T08:23:55.255Z,99686.78
2019-02-22T08:26:24.705Z,99681.35
2019-02-22T08:28:54.052Z,99674.30
2019-02-22T08:31:23.460Z,99669.71
2019-02-22T08:33:52.818Z,99667.22
2019-02-22T08:36:22.184Z,99664.47
2019-02-22T08:38:51.527Z,99662.73
2019-02-22T08:41:20.964Z,99661.80
2019-02-22T08:43:50.426Z,99657.98
2019-02-22T08:46:19.860Z,99658.69
2019-02-22T08:48:49.231Z,99650.98
2019-02-22T08:51:18.580Z,99640.55
2019-02-22T08:53:47.955Z,99645.80
2019-02-22T08:56:17.322Z,99642.16
2019-02-22T08:58:46.700Z,99636.12
2019-02-22T09:01:16.071Z,99635.97
2019-02-22T09:03:50.833Z,99630.23
2019-02-22T09:06:16.633Z,99632.08
2019-02-22T09:08:45.989Z,99632.20
2019-02-22T09:11:15.433Z,99627.29
2019-02-22T09:13:44.790Z,99624.84
2019-02-22T09:16:14.170Z,99623.14
2019-02-22T09:18:43.617Z,99618.58
2019-02-22T09:21:12.959Z,99616.77
2019-02-22T09:23:42.321Z,99621.30
2019-02-22T09:26:11.687Z,99612.28
2019-02-22T09:28:41.055Z,99610.91
2019-02-22T09:31:10.410Z,99608.22
2019-02-22T09:33:39.766Z,99606.16
2019-02-22T09:36:09.147Z,99601.84
2019-02-22T09:38:38.567Z,99601.73
2019-02-22T09:41:07.931Z,99597.23
2019-02-22T09:43:37.359Z,99597.33
2019-02-22T09:46:06.768Z,99591.39
2019-02-22T09:48:36.124Z,99593.83
2019-02-22T09:51:05.551Z,99585.77
2019-02-22T09:53:34.984Z,99583.78
2019-02-22T09:56:04.345Z,99579.95
2019-02-22T09:58:33.702Z,99577.31
2019-02-22T10:01:03.048Z,99576.56
2019-02-22T10:03:32.408Z,99573.38
2019-02-22T10:06:01.778Z,99574.03
2019-02-22T10:08:31.191Z,99566.60
2019-02-22T10:11:00.554Z,99557.99
2019-02-22T10:13:29.912Z,99553.29
2019-02-22T10:15:59.332Z,99546.94
2019-02-22T10:18:28.707Z,99540.38
2019-02-22T10:20:58.139Z,99541.52
2019-02-22T10:23:27.507Z,99535.32
2019-02-22T10:25:56.929Z,99536.91
2019-02-22T10:28:26.296Z,99529.29
2019-02-22T10:30:55.644Z,99523.11
2019-02-22T10:33:35.954Z,99521.96
2019-02-22T10:35:56.265Z,99519.24
2019-02-22T10:38:25.591Z,99520.82
2019-02-22T10:40:54.959Z,99507.05
2019-02-22T10:43:24.322Z,99504.62
2019-02-22T10:45:53.702Z,99497.95
2019-02-22T10:48:23.057Z,99503.49
2019-02-22T10:50:52.480Z,99495.41
2019-02-22T10:53:21.820Z,99484.52
2019-02-22T10:55:51.254Z,99481.33
2019-02-22T10:58:20.626Z,99473.26
2019-02-22T11:00:49.980Z,99474.40
2019-02-22T11:03:19.342Z,99473.25
2019-02-22T11:05:48.754Z,99467.08
2019-02-22T11:08:18.220Z,99467.45
2019-02-22T11:10:47.677Z,99470.35
2019-02-22T11:13:17.032Z,99465.95
2019-02-22T11:15:46.443Z,99467.82
2019-02-22T11:18:15.999Z,99465.77
2019-02-22T11:20:45.357Z,99456.56
2019-02-22T11:23:14.789Z,99453.01
2019-02-22T11:25:44.155Z,99457.11
2019-02-22T11:28:13.583Z,99453.19
2019-02-22T11:30:42.962Z,99449.23
2019-02-22T11:33:12.320Z,99447.92
2019-02-22T11:35:41.666Z,99437.22
2019-02-22T11:38:11.078Z,99434.53
2019-02-22T11:40:40.412Z,99435.81
2019-02-22T11:43:09.845Z,99432.66
2019-02-22T11:45:39.215Z,99427.33
2019-02-22T11:48:09.537Z,99429.30
2019-02-22T11:50:38.999Z,99420.78
2019-02-22T11:53:08.360Z,99418.44
2019-02-22T11:55:37.801Z,99422.84
2019-02-22T11:58:07.184Z,99418.20
2019-02-22T12:00:36.545Z,99408.87
2019-02-22T12:03:21.248Z,99410.75
2019-02-22T12:05:37.442Z,99411.00
2019-02-22T12:08:06.789Z,99392.57
2019-02-22T12:10:36.229Z,99396.61
2019-02-22T12:13:05.662Z,99402.49
2019-02-22T12:15:35.087Z,99403.64
2019-02-22T12:18:04.428Z,99404.14
2019-02-22T12:20:33.892Z,99398.58
2019-02-22T12:23:03.247Z,99399.41
2019-02-22T12:25:32.596Z,99393.70
2019-02-22T12:28:01.964Z,99386.62
2019-02-22T12:30:31.385Z,99378.42
2019-02-22T12:33:00.746Z,99386.73
2019-02-22T12:35:30.178Z,99391.25
2019-02-22T12:37:59.530Z,99388.70
2019-02-22T12:40:28.899Z,99391.86
2019-02-22T12:42:58.273Z,99389.92
2019-02-22T12:45:27.616Z,99374.91
2019-02-22T12:47:56.991Z,99387.60
2019-02-22T12:50:26.336Z,99387.46
2019-02-22T12:52:55.705Z,99388.09
2019-02-22T12:55:25.068Z,99373.96
2019-02-22T12:57:54.430Z,99376.80
2019-02-22T13:00:23.775Z,99382.86
2019-02-22T13:03:01.620Z,99377.44
2019-02-22T13:05:29.669Z,99384.09
2019-02-22T13:07:59.095Z,99378.08
2019-02-22T13:10:28.455Z,99377.00
2019-02-22T13:12:57.820Z,99376.73
2019-02-22T13:15:27.262Z,99375.69
2019-02-22T13:17:56.627Z,99373.81
2019-02-22T13:20:26.030Z,99369.89
2019-02-22T13:22:55.518Z,99365.95
2019-02-22T13:25:24.902Z,99368.55
2019-02-22T13:27:54.260Z,99364.61
2019-02-22T13:30:23.643Z,99353.17
2019-02-22T13:32:52.999Z,99361.44
2019-02-22T13:35:22.359Z,99361.07
2019-02-22T13:37:51.778Z,99363.03
2019-02-22T13:40:21.139Z,99354.20
2019-02-22T13:42:50.612Z,99354.88
2019-02-22T13:45:26.484Z,99359.09
2019-02-22T13:47:51.138Z,99351.69
2019-02-22T13:50:20.582Z,99348.97
2019-02-22T13:52:50.012Z,99348.68
2019-02-22T13:55:19.367Z,99342.22
2019-02-22T13:57:48.729Z,99346.23
2019-02-22T14:00:19.073Z,99344.38
2019-02-22T14:02:48.426Z,99338.84
2019-02-22T14:05:17.894Z,99336.95
2019-02-22T14:07:57.007Z,99337.43
2019-02-22T14:10:26.779Z,99342.52
2019-02-22T14:12:56.091Z,99337.71
2019-02-22T14:15:25.451Z,99341.73
2019-02-22T14:17:56.536Z,99341.36
2019-02-22T14:20:25.911Z,99336.20
2019-02-22T14:22:55.286Z,99333.77
2019-02-22T14:25:24.707Z,99333.31
2019-02-22T14:27:54.066Z,99327.12
2019-02-22T14:30:23.442Z,99323.84
2019-02-22T14:32:52.803Z,99336.02
2019-02-22T14:35:22.187Z,99334.25
2019-02-22T14:37:51.633Z,99322.63
2019-02-22T14:40:21.048Z,99331.51
2019-02-22T14:42:50.477Z,99332.55
2019-02-22T14:45:19.868Z,99335.14
2019-02-22T14:47:49.226Z,99327.27
2019-02-22T14:50:23.278Z,99325.73
2019-02-22T14:52:52.639Z,99333.16
2019-02-22T14:55:22.044Z,99334.70
2019-02-22T14:57:51.414Z,99334.62
2019-02-22T15:00:21.184Z,99334.15
2019-02-22T15:02:50.565Z,99340.89
2019-02-22T15:05:19.930Z,99339.17
2019-02-22T15:07:49.366Z,99341.84
2019-02-22T15:10:19.133Z,99337.62
2019-02-22T15:12:48.603Z,99335.91
2019-02-22T15:15:19.847Z,99336.08
2019-02-22T15:17:59.894Z,99338.67
2019-02-22T15:20:29.255Z,99347.55
2019-02-22T15:22:58.619Z,99339.39
2019-02-22T15:25:27.968Z,99339.09
2019-02-22T15:27:57.409Z,99338.39
2019-02-22T15:30:26.850Z,99338.56
2019-02-22T15:32:56.265Z,99343.81
2019-02-22T15:35:25.639Z,99346.73
2019-02-22T15:37:55.009Z,99339.22
2019-02-22T15:40:24.383Z,99348.50
2019-02-22T15:42:53.736Z,99351.59
2019-02-22T15:45:23.125Z,99350.70
2019-02-22T15:47:52.436Z,99356.81
2019-02-22T15:50:21.816Z,99350.80
2019-02-22T15:52:51.248Z,99351.45
2019-02-22T15:55:20.694Z,99357.62
2019-02-22T15:57:50.045Z,99360.11
2019-02-22T16:00:28.396Z,99363.49
2019-02-22T16:02:57.728Z,99364.44
2019-02-22T16:05:28.727Z,99361.84
2019-02-22T16:07:58.137Z,99363.38
2019-02-22T16:10:27.577Z,99369.41
2019-02-22T16:12:57.053Z,99373.23
2019-02-22T16:15:26.543Z,99372.78
2019-02-22T16:17:56.064Z,99381.70
2019-02-22T16:20:25.433Z,99384.17
2019-02-22T16:22:54.787Z,99394.48
2019-02-22T16:25:24.230Z,99386.42
2019-02-22T16:27:53.599Z,99388.88
2019-02-22T16:30:24.621Z,99389.78
2019-02-22T16:32:54.087Z,99393.80
2019-02-22T16:35:23.491Z,99401.93
2019-02-22T16:37:52.945Z,99406.16
2019-02-22T16:40:22.344Z,99400.03
2019-02-22T16:42:51.902Z,99408.63
2019-02-22T16:45:21.313Z,99407.91
2019-02-22T16:47:50.819Z,99407.13
2019-02-22T16:50:20.204Z,99413.28
2019-02-22T16:52:49.654Z,99415.44
2019-02-22T16:55:19.053Z,99417.36
2019-02-22T16:57:48.479Z,99423.58
2019-02-22T17:00:17.950Z,99420.56
2019-02-22T17:02:47.346Z,99425.48
2019-02-22T17:05:17.297Z,99420.55
2019-02-22T17:07:46.678Z,99431.07
2019-02-22T17:10:16.061Z,99435.55
2019-02-22T17:12:45.518Z,99438.28
2019-02-22T17:15:15.292Z,99433.35
2019-02-22T17:17:44.774Z,99434.13
2019-02-22T17:20:15.105Z,99438.88
2019-02-22T17:22:44.588Z,99431.41
2019-02-22T17:25:18.964Z,99434.55
2019-02-22T17:27:48.390Z,99433.45
2019-02-22T17:30:19.768Z,99433.12
2019-02-22T17:32:49.219Z,99429.21
2019-02-22T17:35:18.679Z,99429.01
2019-02-22T17:37:48.174Z,99433.69
2019-02-22T17:40:20.489Z,99432.76
2019-02-22T17:42:49.919Z,99427.83
2019-02-22T17:45:19.370Z,99428.77
2019-02-22T17:47:48.820Z,99424.44
2019-02-22T17:50:18.271Z,99418.58
2019-02-22T17:52:48.086Z,99414.14
2019-02-22T17:55:17.561Z,99414.14
2019-02-22T17:57:47.001Z,99409.78
2019-02-22T18:00:18.741Z,99411.03
2019-02-22T18:02:48.208Z,99409.99
2019-02-22T18:05:17.643Z,99412.14
2019-02-22T18:07:47.092Z,99405.30
2019-02-22T18:10:16.595Z,99410.58
2019-02-22T18:12:46.066Z,99406.59
2019-02-22T18:15:19.186Z,99406.97
2019-02-22T18:17:48.778Z,99401.84
2019-02-22T18:20:19.759Z,99400.59
2019-02-22T18:22:49.208Z,99398.13
2019-02-22T18:25:18.675Z,99393.63
2019-02-22T18:27:48.233Z,99392.56
2019-02-22T18:30:20.445Z,99390.21
2019-02-22T18:32:49.890Z,99394.44
2019-02-22T18:35:19.363Z,99392.67
2019-02-22T18:37:58.979Z,99391.52
2019-02-22T18:40:28.425Z,99388.88
2019-02-22T18:42:57.864Z,99390.06
2019-02-22T18:45:27.325Z,99382.98
2019-02-22T18:47:56.862Z,99379.86
2019-02-22T18:50:26.283Z,99375.77
2019-02-22T18:52:55.775Z,99381.42
2019-02-22T18:55:25.284Z,99376.52
2019-02-22T18:57:54.938Z,99377.45
2019-02-22T19:00:23.765Z,99377.83
2019-02-22T19:02:53.244Z,99378.14
2019-02-22T19:05:24.462Z,99378.29
2019-02-22T19:07:54.036Z,99380.06
2019-02-22T19:10:23.462Z,99384.44
2019-02-22T19:12:52.863Z,99379.80
2019-02-22T19:15:21.756Z,99381.89
2019-02-22T19:17:51.224Z,99373.97
2019-02-22T19:20:21.313Z,99376.52
2019-02-22T19:22:50.703Z,99381.23
2019-02-22T19:25:19.534Z,99380.44
2019-02-22T19:27:48.371Z,99376.09
2019-02-22T19:30:22.577Z,99378.12
2019-02-22T19:32:51.367Z,99376.81
2019-02-22T19:35:21.778Z,99380.16
2019-02-22T19:37:50.650Z,99376.91
2019-02-22T19:40:23.894Z,99376.26
2019-02-22T19:42:52.714Z,99379.25
2019-02-22T19:45:21.570Z,99382.97
2019-02-22T19:47:51.854Z,99376.50
2019-02-22T19:50:20.654Z,99383.44
2019-02-22T19:52:49.481Z,99388.32
2019-02-22T19:55:18.884Z,99393.48
2019-02-22T19:57:48.307Z,99394.24
2019-02-22T20:00:19.164Z,99392.04
2019-02-22T20:02:47.926Z,99402.47
2019-02-22T20:05:16.912Z,99391.45
2019-02-22T20:07:46.267Z,99395.36
2019-02-22T20:10:22.592Z,99396.14
2019-02-22T20:12:51.440Z,99395.12
2019-02-22T20:15:20.304Z,99394.56
2019-02-22T20:17:54.405Z,99404.02
2019-02-22T20:20:21.532Z,99403.78
2019-02-22T20:22:50.446Z,99404.56
2019-02-22T20:25:19.297Z,99408.07
2019-02-22T20:27:49.693Z,99404.81
2019-02-22T20:30:19.383Z,99412.77
2019-02-22T20:32:48.197Z,99419.94
2019-02-22T20:35:27.201Z,99422.41
2019-02-22T20:37:55.965Z,99425.78
2019-02-22T20:40:25.332Z,99427.34
2019-02-22T20:42:54.824Z,99429.96
2019-02-22T20:45:23.783Z,99434.66
2019-02-22T20:47:52.568Z,99437.32
2019-02-22T20:50:21.435Z,99438.58
2019-02-22T20:52:50.268Z,99439.28
2019-02-22T20:55:19.057Z,99440.44
2019-02-22T20:57:48.119Z,99443.38
2019-02-22T21:00:19.829Z,99449.66
2019-02-22T21:02:48.671Z,99440.62
2019-02-22T21:05:18.211Z,99447.05
2019-02-22T21:07:47.139Z,99451.20
2019-02-22T21:10:17.737Z,99454.73
2019-02-22T21:12:47.100Z,99466.07
2019-02-22T21:15:15.938Z,99469.28
2019-02-22T21:17:44.706Z,99471.84
2019-02-22T21:20:16.063Z,99474.03
2019-02-22T21:22:44.838Z,99480.09
2019-02-22T21:25:13.713Z,99482.27
2019-02-22T21:27:42.552Z,99497.28
2019-02-22T21:30:14.001Z,99511.86
2019-02-22T21:32:42.834Z,99527.03
2019-02-22T21:35:11.596Z,99538.39
2019-02-22T21:37:41.744Z,99551.63
2019-02-22T21:40:11.686Z,99561.02
2019-02-22T21:42:40.501Z,99561.94
2019-02-22T21:45:11.517Z,99596.98
2019-02-22T21:47:40.339Z,99590.17
2019-02-22T21:50:11.520Z,99590.99
2019-02-22T21:52:40.348Z,99608.72
2019-02-22T21:55:13.150Z,99628.73
2019-02-22T21:57:41.914Z,99623.41
2019-02-22T22:00:16.623Z,99635.22
2019-02-22T22:02:45.401Z,99652.02
2019-02-22T22:05:14.213Z,99654.81
2019-02-22T22:07:43.020Z,99663.05
2019-02-22T22:10:11.889Z,99682.39
2019-02-22T22:12:40.677Z,99683.03
2019-02-22T22:15:13.875Z,99673.48
2019-02-22T22:17:42.621Z,99680.66
2019-02-22T22:20:11.474Z,99695.98
2019-02-22T22:22:40.552Z,99692.60
2019-02-22T22:25:11.912Z,99703.34
2019-02-22T22:27:40.675Z,99697.90
2019-02-22T22:30:12.383Z,99701.27
2019-02-22T22:32:41.150Z,99708.36
2019-02-22T22:35:14.977Z,99711.07
2019-02-22T22:37:43.755Z,99711.69
2019-02-22T22:40:12.610Z,99711.23
2019-02-22T22:42:41.445Z,99709.04
2019-02-22T22:45:12.170Z,99716.30
2019-02-22T22:47:41.014Z,99726.86
2019-02-22T22:50:11.490Z,99722.98
2019-02-22T22:52:40.250Z,99732.02
2019-02-22T22:55:10.378Z,99741.91
2019-02-22T22:57:39.167Z,99747.52
2019-02-22T23:00:35.665Z,99762.52
2019-02-22T23:03:04.612Z,99762.19
2019-02-22T23:05:33.941Z,99769.54
2019-02-22T23:08:02.751Z,99778.30
2019-02-22T23:10:31.575Z,99777.05
2019-02-22T23:13:00.454Z,99792.55
2019-02-22T23:15:29.278Z,99792.55
2019-02-22T23:17:58.112Z,99801.50
2019-02-22T23:20:26.904Z,99813.22
2019-02-22T23:22:55.743Z,99813.22
2019-02-22T23:25:24.487Z,99823.69
2019-02-22T23:27:53.316Z,99822.04
2019-02-22T23:30:22.075Z,99822.04
2019-02-22T23:32:50.967Z,99834.06
2019-02-22T23:35:19.808Z,99819.91
2019-02-22T23:37:48.654Z,99842.66
2019-02-22T23:40:17.507Z,99843.14
2019-02-22T23:42:46.272Z,99852.76
2019-02-22T23:45:15.065Z,99848.44
2019-02-22T23:47:43.831Z,99848.44
2019-02-22T23:50:12.655Z,99858.72
2019-02-22T23:52:41.532Z,99847.75
2019-02-22T23:55:10.366Z,99847.75
2019-02-22T23:57:39.145Z,99858.95
